Time;durP1;ratioP1;P1;durP2;ratioP2;P2;SDS_P1;SDS_P2;PMS_P1;PMS_P2;Temp;Humidity;BMP_temperature;BMP_pressure;BME280_temperature;BME280_humidity;BME280_pressure;Samples;Min_cycle;Max_cycle;Signal;HPM_P1;HPM_P2
2022/10/05 00:01:44;;;;;;;13.52;7.88;;;;;;;13.47;91.41;101728.00;5012800;28;20037;-79
2022/10/05 00:04:18;;;;;;;11.85;7.70;;;;;;;13.55;91.73;101740.47;5012665;28;20077;-79
2022/10/05 00:07:01;;;;;;;12.55;8.13;;;;;;;13.70;91.85;101775.88;5012787;28;20018;-79
2022/10/05 00:09:30;;;;;;;12.20;8.15;;;;;;;13.63;92.02;101764.19;5012976;28;20084;-79
2022/10/05 00:11:56;;;;;;;11.48;7.80;;;;;;;13.70;92.14;101770.69;5013082;28;20022;-79
2022/10/05 00:14:29;;;;;;;13.00;8.77;;;;;;;13.61;92.12;101763.47;5012872;28;20049;-80
2022/10/05 00:16:56;;;;;;;12.57;8.55;;;;;;;13.65;92.29;101757.16;5012731;28;20113;-78
2022/10/05 00:19:32;;;;;;;15.32;8.95;;;;;;;13.64;92.33;101745.94;5012654;28;20022;-78
2022/10/05 00:22:16;;;;;;;12.93;8.70;;;;;;;13.68;92.28;101751.78;5012644;28;20038;-79
2022/10/05 00:24:42;;;;;;;14.23;8.63;;;;;;;13.40;92.74;101711.94;5016283;28;20355;-80
2022/10/05 00:27:21;;;;;;;13.43;8.65;;;;;;;13.64;92.82;101750.28;5016091;28;20413;-79
2022/10/05 00:29:49;;;;;;;15.68;9.02;;;;;;;13.63;92.82;101761.59;5016199;28;20029;-78
2022/10/05 00:32:14;;;;;;;14.20;9.52;;;;;;;13.61;93.18;101748.72;5016224;28;20022;-79
2022/10/05 00:34:41;;;;;;;12.73;8.40;;;;;;;13.59;93.20;101749.75;5015879;28;20072;-78
2022/10/05 00:37:06;;;;;;;11.57;8.20;;;;;;;13.56;93.04;101736.94;5015818;28;20033;-80
2022/10/05 00:39:34;;;;;;;15.07;8.90;;;;;;;13.54;93.47;101731.03;5015787;28;20042;-78
2022/10/05 00:42:15;;;;;;;13.82;9.27;;;;;;;13.60;93.42;101746.22;5015972;28;20022;-79
2022/10/05 00:44:43;;;;;;;15.30;9.43;;;;;;;13.60;93.32;101743.63;4998386;28;20381;-78
2022/10/05 00:47:22;;;;;;;16.70;10.25;;;;;;;13.58;93.74;101746.34;5015716;28;20037;-78
2022/10/05 00:50:16;;;;;;;14.55;9.43;;;;;;;13.59;93.39;101749.75;5015569;28;20076;-80
2022/10/05 00:53:08;;;;;;;14.55;9.75;;;;;;;13.56;93.63;101742.97;5015545;28;20401;-79
2022/10/05 00:56:02;;;;;;;14.05;9.65;;;;;;;13.58;93.68;101740.31;5015601;28;20017;-80
2022/10/05 00:58:45;;;;;;;12.40;9.35;;;;;;;13.55;93.81;101750.84;5015741;28;20065;-80
2022/10/05 01:01:35;;;;;;;12.18;8.80;;;;;;;13.54;93.97;101744.84;5015449;28;20096;-78
2022/10/05 01:04:12;;;;;;;14.95;9.88;;;;;;;13.52;94.23;101744.09;5015357;28;20357;-78
2022/10/05 01:06:51;;;;;;;15.40;9.80;;;;;;;13.44;94.19;101725.56;5015236;28;20424;-78
2022/10/05 01:09:43;;;;;;;15.45;9.93;;;;;;;13.30;94.00;101690.09;5015266;28;20034;-78
2022/10/05 01:12:22;;;;;;;15.02;10.40;;;;;;;13.51;94.37;101729.47;5002093;28;20532;-78
2022/10/05 01:15:07;;;;;;;14.68;9.90;;;;;;;13.51;94.51;101732.06;5015135;28;20473;-78
2022/10/05 01:17:51;;;;;;;13.93;10.07;;;;;;;13.42;94.44;101710.09;5015105;28;20577;-78
2022/10/05 01:21:19;;;;;;;14.70;10.43;;;;;;;13.51;94.34;101719.06;5014755;28;20424;-77
2022/10/05 01:24:05;;;;;;;14.50;10.48;;;;;;;13.47;94.85;101712.41;4922987;29;20091;-78
2022/10/05 01:26:58;;;;;;;15.93;10.15;;;;;;;13.47;94.71;101713.25;4935305;29;20032;-79
2022/10/05 01:29:48;;;;;;;13.25;9.55;;;;;;;13.47;94.86;101713.25;4935653;29;20496;-79
2022/10/05 01:32:58;;;;;;;14.80;9.75;;;;;;;13.45;94.90;101709.88;4935551;29;20107;-78
2022/10/05 01:35:32;;;;;;;15.38;9.85;;;;;;;13.42;95.00;101712.69;4896748;29;20401;-78
2022/10/05 01:38:15;;;;;;;15.00;9.20;;;;;;;13.40;94.94;101706.75;4897275;29;20083;-79
2022/10/05 01:40:59;;;;;;;13.60;10.30;;;;;;;13.43;95.04;101711.75;4897466;29;20124;-79
2022/10/05 01:43:36;;;;;;;14.50;9.07;;;;;;;13.43;95.34;101708.31;4897442;29;20028;-78
2022/10/05 01:46:34;;;;;;;14.68;9.52;;;;;;;13.41;95.21;101698.03;4897281;29;20051;-78
2022/10/05 01:49:15;;;;;;;12.15;9.23;;;;;;;13.31;95.19;101673.59;4896780;29;20048;-79
2022/10/05 01:52:15;;;;;;;14.63;10.57;;;;;;;13.33;95.17;101681.28;4897023;29;20426;-77
2022/10/05 01:54:50;;;;;;;14.10;10.40;;;;;;;13.40;95.40;101692.94;4938509;29;20069;-78
2022/10/05 01:57:40;;;;;;;14.65;10.75;;;;;;;13.39;95.55;101680.91;4954229;29;20035;-78
2022/10/05 02:00:09;;;;;;;13.07;10.25;;;;;;;13.26;95.59;101657.47;4953979;29;20043;-79
2022/10/05 02:02:51;;;;;;;17.27;10.48;;;;;;;13.36;95.83;101668.09;4953804;29;20050;-78
2022/10/05 02:05:39;;;;;;;16.08;10.07;;;;;;;13.37;95.50;101669.78;4953785;29;20082;-78
2022/10/05 02:08:21;;;;;;;17.25;10.38;;;;;;;13.34;95.63;101668.19;4953912;29;20031;-79
2022/10/05 02:10:56;;;;;;;;;;;;;;;13.38;94.99;101671.47;4954355;29;20031;-78
2022/10/05 02:13:48;;;;;;;15.38;9.27;;;;;;;13.33;95.60;101663.13;5013046;28;19920;-78
2022/10/05 02:16:17;;;;;;;16.65;10.15;;;;;;;13.29;95.69;101664.25;5014280;28;20037;-78
2022/10/05 02:18:58;;;;;;;13.27;9.45;;;;;;;13.27;96.17;101668.66;5014186;28;20022;-78
2022/10/05 02:21:25;;;;;;;14.30;10.50;;;;;;;13.27;96.17;101669.50;5014047;28;20065;-79
2022/10/05 02:23:55;;;;;;;14.40;9.98;;;;;;;13.09;96.25;101629.94;5014198;28;20078;-78
2022/10/05 02:26:21;;;;;;;16.27;9.90;;;;;;;13.12;96.23;101627.16;5014116;28;20026;-80
2022/10/05 02:28:53;;;;;;;14.52;10.70;;;;;;;13.19;96.33;101643.22;5014053;28;20022;-80
2022/10/05 02:31:21;;;;;;;15.15;9.75;;;;;;;13.25;96.33;101653.19;5014025;28;20026;-80
2022/10/05 02:33:46;;;;;;;13.82;10.70;;;;;;;13.22;96.12;101637.00;5014300;28;20030;-80
2022/10/05 02:36:15;;;;;;;15.13;10.65;;;;;;;13.28;96.26;101640.06;5013812;28;20079;-80
2022/10/05 02:38:52;;;;;;;17.75;9.90;;;;;;;13.27;96.29;101632.34;5013480;28;20042;-80
2022/10/05 02:41:52;;;;;;;16.00;10.15;;;;;;;13.27;96.43;101638.38;5013765;28;20037;-80
2022/10/05 02:44:34;;;;;;;13.27;9.80;;;;;;;13.27;96.33;101640.97;5013537;28;20026;-80
2022/10/05 02:47:28;;;;;;;15.15;9.93;;;;;;;13.13;96.33;101610.66;5013226;28;20029;-80
2022/10/05 02:50:06;;;;;;;17.10;10.30;;;;;;;13.26;96.44;101628.94;4996398;28;20080;-79
2022/10/05 02:52:52;;;;;;;15.80;10.60;;;;;;;13.26;96.42;101626.34;5013429;28;20029;-79
2022/10/05 02:55:30;;;;;;;16.70;10.38;;;;;;;13.23;96.40;101618.75;4996015;28;20030;-80
2022/10/05 02:58:14;;;;;;;14.77;9.93;;;;;;;13.19;96.38;101606.91;5013510;28;20037;-79
2022/10/05 03:00:53;;;;;;;15.13;9.73;;;;;;;13.18;97.01;101607.81;5013443;28;20022;-80
2022/10/05 03:03:27;;;;;;;14.18;10.15;;;;;;;13.14;96.40;101596.78;5013528;28;20036;-80
2022/10/05 03:05:59;;;;;;;14.93;10.35;;;;;;;13.07;96.57;101584.28;5013527;28;20108;-80
2022/10/05 03:08:34;;;;;;;14.10;10.10;;;;;;;13.18;96.74;101611.22;5013393;28;20045;-80
2022/10/05 03:11:25;;;;;;;14.15;9.48;;;;;;;13.08;96.82;101588.56;5013276;28;20148;-80
2022/10/05 03:14:17;;;;;;;15.05;10.30;;;;;;;13.15;96.94;101603.63;5013273;28;20112;-79
2022/10/05 03:16:45;;;;;;;16.05;9.90;;;;;;;13.15;97.17;101601.03;5013430;28;20108;-80
2022/10/05 03:19:38;;;;;;;13.60;10.32;;;;;;;13.17;96.97;101606.13;5013370;28;20061;-79
2022/10/05 03:22:24;;;;;;;15.88;9.85;;;;;;;13.18;96.96;101602.63;5013099;28;20381;-80
2022/10/05 03:25:23;;;;;;;14.52;9.60;;;;;;;13.17;96.86;101585.38;5013172;28;20061;-79
2022/10/05 03:28:06;;;;;;;13.07;9.45;;;;;;;13.19;97.05;101593.94;5013222;28;20026;-80
2022/10/05 03:30:39;;;;;;;18.17;10.07;;;;;;;13.19;97.01;101601.72;5013512;28;20384;-80
2022/10/05 03:33:28;;;;;;;14.68;9.75;;;;;;;13.18;97.08;101605.22;5013235;28;20022;-80
2022/10/05 03:36:23;;;;;;;14.93;9.48;;;;;;;13.14;96.87;101594.19;5012964;28;20112;-77
2022/10/05 03:39:05;;;;;;;13.00;9.18;;;;;;;13.16;97.00;101594.06;5012674;28;20099;-80
2022/10/05 03:41:46;;;;;;;15.00;9.88;;;;;;;13.13;97.16;101599.47;5013199;28;20040;-79
2022/10/05 03:44:30;;;;;;;15.65;9.88;;;;;;;13.10;97.44;101597.06;5013227;28;20025;-80
2022/10/05 03:47:13;;;;;;;13.30;9.98;;;;;;;13.06;97.63;101598.16;5013232;28;20041;-79
2022/10/05 03:50:06;;;;;;;13.88;8.88;;;;;;;13.03;97.71;101599.19;5013149;28;20058;-80
2022/10/05 03:52:46;;;;;;;13.55;9.27;;;;;;;12.96;97.98;101589.28;5012849;28;20030;-79
2022/10/05 03:55:23;;;;;;;13.25;9.25;;;;;;;12.98;98.06;101601.25;5013142;28;20022;-80
2022/10/05 03:57:51;;;;;;;14.10;9.70;;;;;;;12.96;98.15;101594.47;5015340;28;20064;-80
2022/10/05 04:00:22;;;;;;;12.65;9.25;;;;;;;12.89;98.47;101578.47;4999160;28;20033;-80
2022/10/05 04:03:05;;;;;;;13.23;9.40;;;;;;;12.75;98.53;101555.13;5016654;28;20389;-79
2022/10/05 04:05:54;;;;;;;13.27;9.23;;;;;;;12.97;98.07;101584.00;5016589;28;20036;-79
2022/10/05 04:08:27;;;;;;;14.65;9.63;;;;;;;13.03;98.09;101595.75;5016054;28;20030;-80
2022/10/05 04:10:56;;;;;;;15.35;9.27;;;;;;;13.05;98.20;101599.09;5016563;28;20084;-80
2022/10/05 04:13:39;;;;;;;15.93;9.98;;;;;;;12.95;97.87;101577.25;5016472;28;20038;-79
2022/10/05 04:16:13;;;;;;;15.43;9.25;;;;;;;13.04;98.02;101597.44;5016490;28;20030;-80
2022/10/05 04:18:44;;;;;;;16.92;9.93;;;;;;;12.97;98.12;101581.41;5030802;28;20044;-80
2022/10/05 04:21:20;;;;;;;16.80;10.15;;;;;;;13.09;98.07;101592.81;5016105;28;20529;-78
2022/10/05 04:23:58;;;;;;;14.40;10.20;;;;;;;13.06;97.87;101586.03;4998531;28;20053;-80
2022/10/05 04:27:02;;;;;;;15.13;10.48;;;;;;;13.09;97.91;101592.81;4998679;28;20469;-78
2022/10/05 04:29:40;;;;;;;14.60;10.02;;;;;;;13.07;97.88;101594.63;5003890;28;20048;-79
2022/10/05 04:32:14;;;;;;;15.60;9.73;;;;;;;13.10;97.77;101589.28;5016054;28;20026;-79
2022/10/05 04:34:52;;;;;;;16.05;10.05;;;;;;;13.06;97.97;101582.59;5015996;28;20030;-78
2022/10/05 04:37:25;;;;;;;16.77;9.98;;;;;;;13.03;97.74;101572.44;5015615;28;20026;-77
2022/10/05 04:40:03;;;;;;;15.27;10.40;;;;;;;13.09;97.85;101578.09;5015643;28;20573;-78
2022/10/05 04:42:46;;;;;;;15.63;9.98;;;;;;;13.02;97.74;101566.41;5015798;28;20037;-78
2022/10/05 04:45:41;;;;;;;14.57;9.45;;;;;;;13.09;97.78;101579.84;5015866;28;20034;-78
2022/10/05 04:48:25;;;;;;;15.82;10.00;;;;;;;13.10;97.35;101578.91;5011585;28;20042;-78
2022/10/05 04:51:18;;;;;;;15.82;10.25;;;;;;;13.10;97.72;101574.56;4998065;28;20052;-79
2022/10/05 04:54:02;;;;;;;11.90;9.20;;;;;;;13.10;97.35;101574.56;5015540;28;20045;-77
2022/10/05 04:56:37;;;;;;;15.23;8.50;;;;;;;13.03;97.09;101564.66;5015501;28;20120;-79
2022/10/05 04:59:34;;;;;;;17.23;9.90;;;;;;;13.13;96.92;101573.53;5015399;28;20030;-78
2022/10/05 05:02:05;;;;;;;13.65;8.98;;;;;;;13.11;96.68;101568.44;5015637;28;20030;-80
2022/10/05 05:04:52;;;;;;;13.93;9.70;;;;;;;13.13;96.66;101569.19;5015461;28;20090;-80
2022/10/05 05:07:39;;;;;;;15.57;9.10;;;;;;;13.12;96.79;101570.09;5015317;28;20064;-80
2022/10/05 05:10:22;;;;;;;14.45;8.90;;;;;;;13.13;96.35;101573.53;5014606;28;20025;-78
2022/10/05 05:13:00;;;;;;;12.35;8.00;;;;;;;13.13;96.22;101568.34;5015484;28;20030;-77
2022/10/05 05:15:45;;;;;;;11.20;7.72;;;;;;;13.13;95.90;101565.75;5015350;28;20357;-78
2022/10/05 05:18:35;;;;;;;12.52;8.32;;;;;;;13.14;95.89;101560.47;4997639;28;20032;-78
2022/10/05 05:21:26;;;;;;;12.73;8.20;;;;;;;13.13;95.64;101566.59;5015381;28;20029;-79
2022/10/05 05:24:02;;;;;;;13.45;8.98;;;;;;;13.14;95.65;101563.06;5010935;28;20057;-79
2022/10/05 05:26:54;;;;;;;11.30;7.82;;;;;;;13.15;95.30;101559.53;5015269;28;20362;-78
2022/10/05 05:29:32;;;;;;;11.82;8.18;;;;;;;13.09;95.08;101546.13;5014917;28;20474;-78
2022/10/05 05:32:27;;;;;;;13.45;7.93;;;;;;;13.17;94.74;101562.03;5014728;28;20026;-78
2022/10/05 05:35:26;;;;;;;12.15;7.80;;;;;;;13.17;94.75;101551.66;5015128;28;20109;-78
2022/10/05 05:38:13;;;;;;;11.43;7.28;;;;;;;13.17;94.80;101554.25;5014419;28;20136;-78
2022/10/05 05:40:52;;;;;;;12.73;7.35;;;;;;;13.14;94.66;101549.25;5014567;28;20115;-78
2022/10/05 05:43:50;;;;;;;14.05;7.28;;;;;;;13.18;94.55;101556.78;5014577;28;20080;-78
2022/10/05 05:46:24;;;;;;;11.90;7.70;;;;;;;13.14;94.45;101547.50;5107034;22;20053;-78
2022/10/05 05:48:52;;;;;;;12.90;7.40;;;;;;;13.17;94.53;101551.66;5014522;28;20485;-78
2022/10/05 05:51:54;;;;;;;11.60;7.22;;;;;;;13.17;94.83;101549.06;5014826;28;20064;-79
2022/10/05 05:54:32;;;;;;;9.63;6.88;;;;;;;13.16;94.69;101543.03;4934806;29;20560;-78
2022/10/05 05:57:09;;;;;;;10.77;7.60;;;;;;;13.09;94.92;101541.78;4934738;29;20456;-79
2022/10/05 06:00:00;;;;;;;10.48;7.20;;;;;;;13.16;94.88;101544.81;4934861;29;20071;-80
2022/10/05 06:02:34;;;;;;;12.25;7.80;;;;;;;13.14;94.93;101544.06;4934774;29;20060;-77
2022/10/05 06:05:13;;;;;;;9.90;6.97;;;;;;;12.86;95.25;101500.88;4934661;29;20377;-78
2022/10/05 06:07:39;;;;;;;11.85;7.05;;;;;;;13.16;94.92;101539.63;4934678;29;20114;-80
2022/10/05 06:10:27;;;;;;;10.27;6.90;;;;;;;13.18;94.67;101550.75;4934443;29;20130;-78
2022/10/05 06:12:55;;;;;;;11.95;7.20;;;;;;;13.05;94.60;101527.31;4934712;29;20488;-78
2022/10/05 06:15:26;;;;;;;9.82;6.90;;;;;;;13.18;94.46;101543.81;4918648;29;20436;-77
2022/10/05 06:17:56;;;;;;;11.68;7.07;;;;;;;13.19;94.59;101549.84;4918791;29;20597;-80
2022/10/05 06:20:41;;;;;;;12.02;6.97;;;;;;;13.18;94.91;101551.59;4934517;29;20107;-80
2022/10/05 06:23:16;;;;;;;11.68;6.70;;;;;;;13.20;94.46;101554.09;4934535;29;20078;-78
2022/10/05 06:26:00;;;;;;;10.35;6.55;;;;;;;13.22;94.37;101546.22;4934175;29;20038;-79
2022/10/05 06:28:28;;;;;;;10.20;6.70;;;;;;;13.10;94.20;101529.66;4934202;29;20036;-78
2022/10/05 06:31:15;;;;;;;11.27;6.28;;;;;;;13.23;94.45;101551.31;4967963;28;20469;-78
2022/10/05 06:33:57;;;;;;;9.18;6.50;;;;;;;13.23;93.94;101543.53;5026953;28;20057;-74
2022/10/05 06:36:41;;;;;;;9.65;6.47;;;;;;;13.24;93.97;101550.38;5033591;28;20033;-80
2022/10/05 06:39:24;;;;;;;9.45;6.38;;;;;;;13.24;94.10;101549.56;5033307;28;20120;-80
2022/10/05 06:42:19;;;;;;;13.02;6.35;;;;;;;13.28;94.08;101545.84;5033366;28;20083;-78
2022/10/05 06:44:59;;;;;;;10.07;6.05;;;;;;;13.07;93.63;101498.69;5033283;28;20037;-80
2022/10/05 06:48:06;;;;;;;9.30;5.68;;;;;;;13.38;93.42;101547.78;5033334;28;20105;-79
2022/10/05 06:50:37;;;;;;;10.50;6.35;;;;;;;13.41;93.17;101542.38;4953170;29;20551;-80
2022/10/05 06:54:02;;;;;;;12.63;6.50;;;;;;;13.46;92.74;101537.72;4937318;29;20138;-79
2022/10/05 06:56:47;;;;;;;8.27;5.82;;;;;;;13.51;92.41;101546.97;4933813;29;20047;-79
2022/10/05 06:59:21;;;;;;;8.13;5.65;;;;;;;13.52;92.02;101540.88;4934029;29;20538;-81
2022/10/05 07:01:56;;;;;;;9.38;5.50;;;;;;;13.44;92.54;101525.78;4926869;29;20486;-76
2022/10/05 07:04:42;;;;;;;8.43;5.63;;;;;;;13.59;91.88;101553.34;4915216;29;20381;-80
2022/10/05 07:07:22;;;;;;;9.95;5.72;;;;;;;13.59;91.92;101545.56;4915276;28;20404;-75
2022/10/05 07:10:19;;;;;;;10.50;5.65;;;;;;;13.62;91.76;101550.56;4914579;29;20032;-81
2022/10/05 07:13:22;;;;;;;9.63;5.93;;;;;;;13.64;91.49;101553.88;4907121;29;20041;-76
2022/10/05 07:15:55;;;;;;;9.95;5.38;;;;;;;13.68;91.84;101554.53;4914833;29;20056;-80
2022/10/05 07:18:38;;;;;;;8.98;5.60;;;;;;;13.72;91.07;101545.59;4915379;29;20472;-81
2022/10/05 07:21:08;;;;;;;9.40;5.40;;;;;;;13.74;90.88;101541.97;4915393;29;20046;-80
2022/10/05 07:23:56;;;;;;;8.88;5.13;;;;;;;13.85;90.50;101549.06;4914755;29;20043;-80
2022/10/05 07:26:21;;;;;;;8.07;4.97;;;;;;;13.94;89.88;101553.66;4861891;29;20098;-80
2022/10/05 07:29:07;;;;;;;8.63;5.90;;;;;;;14.04;90.35;101559.91;4933740;29;20048;-80
2022/10/05 07:31:44;;;;;;;8.95;5.68;;;;;;;14.10;90.02;101558.69;4946831;28;20439;-81
2022/10/05 07:34:49;;;;;;;7.32;4.97;;;;;;;14.21;89.17;101563.16;4956801;29;20750;-79
2022/10/05 07:40:24;;;;;;;8.38;5.63;;;;;;;14.29;89.34;101559.13;4880882;29;20126;-81
2022/10/05 07:43:06;;;;;;;9.20;5.30;;;;;;;14.35;88.70;101563.91;4880764;29;20037;-80
2022/10/05 07:46:15;;;;;;;8.95;5.30;;;;;;;14.40;88.62;101560.16;4879433;29;20073;-81
2022/10/05 07:49:02;;;;;;;9.43;5.95;;;;;;;14.43;88.21;101552.97;4843661;29;20053;-82
2022/10/05 07:51:37;;;;;;;9.32;5.50;;;;;;;14.45;88.34;101553.75;4843500;29;20038;-81
2022/10/05 07:54:25;;;;;;;9.07;5.05;;;;;;;14.52;87.75;101561.97;4843608;29;20085;-81
2022/10/05 07:57:05;;;;;;;8.35;5.07;;;;;;;14.61;88.20;101569.13;4833547;29;20514;-82
2022/10/05 07:59:57;;;;;;;7.70;5.40;;;;;;;14.67;87.77;101565.31;4843436;29;20042;-81
2022/10/05 08:02:30;;;;;;;9.43;5.63;;;;;;;14.71;86.99;101562.38;4848367;29;20099;-79
2022/10/05 08:05:08;;;;;;;9.65;5.32;;;;;;;14.71;87.24;101549.38;4899207;29;20370;-81
2022/10/05 08:07:35;;;;;;;11.02;5.53;;;;;;;14.62;86.17;101518.81;4898753;29;20489;-80
2022/10/05 08:10:18;;;;;;;7.80;5.30;;;;;;;15.00;86.65;101552.56;4899146;29;20119;-81
2022/10/05 08:13:20;;;;;;;9.88;5.78;;;;;;;15.16;85.63;101558.34;4921093;29;20043;-81
2022/10/05 08:15:50;;;;;;;9.63;5.95;;;;;;;15.14;84.79;101542.03;4898939;29;20141;-80
2022/10/05 08:18:33;;;;;;;9.40;5.55;;;;;;;15.28;84.88;101548.00;4898903;29;20033;-80
2022/10/05 08:20:59;;;;;;;10.65;5.88;;;;;;;15.37;84.02;101544.75;4898825;29;20051;-80
2022/10/05 08:23:37;;;;;;;9.85;5.78;;;;;;;15.38;84.04;101520.38;4898902;29;20033;-80
2022/10/05 08:26:13;;;;;;;9.18;5.65;;;;;;;15.64;83.65;101537.59;4933163;29;20043;-78
2022/10/05 08:28:46;;;;;;;9.15;5.40;;;;;;;15.73;82.12;101533.47;4955545;29;20035;-78
2022/10/05 08:31:20;;;;;;;9.20;5.50;;;;;;;15.73;82.39;101539.53;4955584;29;20047;-78
2022/10/05 08:33:52;;;;;;;8.80;5.07;;;;;;;15.75;82.46;101537.63;4955574;29;20094;-80
2022/10/05 08:36:27;;;;;;;8.95;5.47;;;;;;;15.85;81.68;101534.34;4955437;29;20087;-80
2022/10/05 08:38:55;;;;;;;9.73;5.40;;;;;;;15.87;80.91;101529.84;4955435;29;20122;-80
2022/10/05 08:41:51;;;;;;;9.85;5.38;;;;;;;16.00;80.99;101534.03;4955276;29;20448;-80
2022/10/05 08:44:35;;;;;;;14.77;5.70;;;;;;;16.11;81.18;101524.56;4954297;28;20031;-79
2022/10/05 08:47:56;;;;;;;10.57;5.05;;;;;;;16.15;79.95;101505.19;4955523;29;20071;-81
2022/10/05 08:50:55;;;;;;;10.02;5.20;;;;;;;16.23;80.46;101521.91;4936411;29;20032;-82
2022/10/05 08:53:51;;;;;;;7.53;3.95;;;;;;;16.30;79.05;101528.28;4974733;28;20030;-78
2022/10/05 08:56:29;;;;;;;7.25;4.65;;;;;;;16.25;79.68;101512.19;4974395;28;20023;-78
2022/10/05 08:59:15;;;;;;;10.27;4.45;;;;;;;16.28;79.12;101514.53;4974607;28;20082;-78
2022/10/05 09:01:54;;;;;;;7.15;4.63;;;;;;;16.41;78.86;101511.00;4974484;28;20421;-76
2022/10/05 09:04:40;;;;;;;8.30;4.57;;;;;;;16.53;79.77;101510.91;4974214;28;20039;-79
2022/10/05 09:07:29;;;;;;;9.35;4.97;;;;;;;16.64;79.99;101512.69;4974448;28;20062;-80
2022/10/05 09:10:13;;;;;;;11.13;5.30;;;;;;;16.73;78.33;101503.34;4974308;28;20035;-77
2022/10/05 09:13:23;;;;;;;11.85;4.65;;;;;;;16.71;78.27;101486.97;4973924;28;20037;-78
2022/10/05 09:16:17;;;;;;;8.50;4.78;;;;;;;16.91;77.50;101501.88;4935634;29;20048;-79
2022/10/05 09:19:04;;;;;;;9.35;4.65;;;;;;;16.99;76.74;101507.31;4935828;28;20070;-76
2022/10/05 09:21:42;;;;;;;7.15;4.32;;;;;;;17.04;76.93;101501.75;4935826;29;20071;-79
2022/10/05 09:24:13;;;;;;;6.85;4.38;;;;;;;17.09;76.61;101504.81;4946269;28;20527;-77
2022/10/05 09:27:17;;;;;;;7.57;4.38;;;;;;;17.24;77.10;101503.59;4954734;29;20053;-76
2022/10/05 09:30:21;;;;;;;10.38;4.53;;;;;;;17.26;76.47;101498.25;4897545;29;20052;-76
2022/10/05 09:33:24;;;;;;;7.45;4.45;;;;;;;17.36;76.45;101493.94;4897528;29;20677;-76
2022/10/05 09:35:59;;;;;;;7.07;4.30;;;;;;;17.32;75.01;101497.78;4897387;29;20547;-76
2022/10/05 09:38:24;;;;;;;8.65;4.20;;;;;;;17.31;74.96;101491.72;4897520;29;20052;-76
2022/10/05 09:41:08;;;;;;;7.85;4.10;;;;;;;17.36;75.34;101500.00;4897497;29;20036;-77
2022/10/05 09:43:45;;;;;;;6.47;4.18;;;;;;;17.40;75.05;101495.34;4897245;29;20101;-77
2022/10/05 09:46:31;;;;;;;6.18;3.78;;;;;;;17.58;74.95;101490.41;4897034;29;20136;-76
2022/10/05 09:49:33;;;;;;;9.45;3.88;;;;;;;17.69;74.68;101493.81;4897502;29;20096;-75
2022/10/05 09:52:13;;;;;;;7.28;3.97;;;;;;;17.67;74.37;101492.28;4910778;29;20052;-74
2022/10/05 09:54:44;;;;;;;7.65;4.00;;;;;;;17.67;73.25;101481.81;4915622;29;20641;-74
2022/10/05 09:57:28;;;;;;;7.22;4.40;;;;;;;17.65;73.65;101479.34;4915828;29;20032;-75
2022/10/05 10:00:21;;;;;;;7.07;4.00;;;;;;;17.63;73.43;101476.03;4915827;29;20052;-74
2022/10/05 10:03:01;;;;;;;8.02;3.75;;;;;;;17.69;74.09;101467.69;4916019;29;20032;-76
2022/10/05 10:05:46;;;;;;;7.95;4.00;;;;;;;17.78;74.21;101466.13;4975254;28;20045;-76
2022/10/05 10:08:30;;;;;;;7.13;3.58;;;;;;;17.82;72.80;101470.16;5014449;28;20362;-76
2022/10/05 10:11:00;;;;;;;6.88;3.60;;;;;;;17.85;72.72;101456.00;4996983;28;20061;-75
2022/10/05 10:14:11;;;;;;;7.82;4.30;;;;;;;18.03;73.29;101465.72;5013999;28;20030;-76
2022/10/05 10:16:49;;;;;;;5.67;3.87;;;;;;;18.12;72.76;101455.47;5014203;28;20038;-74
2022/10/05 10:19:34;;;;;;;7.18;4.05;;;;;;;18.14;71.96;101450.94;5014099;28;20768;-77
2022/10/05 10:22:18;;;;;;;9.55;4.18;;;;;;;18.21;72.67;101462.53;5013924;28;20026;-77
2022/10/05 10:24:55;;;;;;;7.57;3.42;;;;;;;18.29;72.44;101454.88;5014152;28;20485;-77
2022/10/05 10:27:30;;;;;;;7.07;3.60;;;;;;;18.34;71.34;101455.28;5013669;28;20053;-77
2022/10/05 10:30:38;;;;;;;6.50;3.35;;;;;;;18.39;71.97;101426.97;5013955;28;20046;-76
2022/10/05 10:33:27;;;;;;;7.90;3.42;;;;;;;18.49;72.28;101417.34;4972679;28;20446;-78
2022/10/05 10:36:08;;;;;;;6.47;4.20;;;;;;;18.69;70.36;101433.97;4972735;28;20035;-76
2022/10/05 10:39:05;;;;;;;6.00;3.67;;;;;;;18.80;70.59;101435.63;4972825;28;20034;-75
2022/10/05 10:42:00;;;;;;;7.68;3.78;;;;;;;18.93;70.32;101425.72;4971338;28;20031;-75
2022/10/05 10:44:45;;;;;;;9.10;3.92;;;;;;;18.89;71.29;101432.19;4956446;28;20047;-77
2022/10/05 10:47:39;;;;;;;6.43;3.22;;;;;;;18.92;70.16;101417.03;4953311;29;20046;-75
2022/10/05 10:50:27;;;;;;;7.10;3.78;;;;;;;18.91;69.00;101417.19;4953362;29;20039;-76
2022/10/05 10:53:20;;;;;;;6.95;3.30;;;;;;;18.78;69.58;101417.47;4953225;29;20031;-76
2022/10/05 10:56:07;;;;;;;8.52;3.63;;;;;;;18.71;69.90;101415.50;4952960;29;20070;-76
2022/10/05 10:59:00;;;;;;;8.02;3.63;;;;;;;18.79;70.31;101419.09;4953028;29;20491;-77
2022/10/05 11:02:03;;;;;;;4.47;3.15;;;;;;;18.80;69.82;101412.09;4933938;29;20047;-76
2022/10/05 11:05:11;;;;;;;7.22;3.30;;;;;;;18.82;70.22;101412.78;4933981;29;20058;-77
2022/10/05 11:07:56;;;;;;;6.53;3.50;;;;;;;18.88;69.07;101407.81;4897710;29;20436;-73
2022/10/05 11:10:25;;;;;;;8.57;3.65;;;;;;;18.74;68.04;101407.38;4914733;29;20119;-73
2022/10/05 11:13:08;;;;;;;8.00;3.00;;;;;;;18.77;69.67;101405.31;4914632;29;20035;-73
2022/10/05 11:15:52;;;;;;;5.97;2.67;;;;;;;18.84;70.04;101410.84;4914911;29;20039;-74
2022/10/05 11:18:38;;;;;;;4.65;2.60;;;;;;;19.03;70.23;101396.94;4898960;29;20036;-73
2022/10/05 11:21:25;;;;;;;5.95;2.85;;;;;;;19.11;69.75;101408.38;4907801;29;20059;-77
2022/10/05 11:23:59;;;;;;;8.77;3.13;;;;;;;19.13;68.66;101403.81;4914814;29;20523;-76
2022/10/05 11:26:42;;;;;;;7.25;3.20;;;;;;;19.14;68.47;101395.00;4914820;29;20498;-76
2022/10/05 11:29:19;;;;;;;7.30;2.83;;;;;;;19.03;67.95;101358.50;4914351;29;20043;-76
2022/10/05 11:32:06;;;;;;;6.22;2.72;;;;;;;19.26;69.21;101384.38;4914898;29;20096;-76
2022/10/05 11:34:57;;;;;;;5.40;2.63;;;;;;;19.26;67.20;101373.91;4914762;29;20040;-77
2022/10/05 11:37:39;;;;;;;6.00;2.65;;;;;;;19.26;68.16;101379.16;4914626;29;20040;-74
2022/10/05 11:40:42;;;;;;;5.10;2.63;;;;;;;19.47;68.12;101371.97;4914605;29;20044;-78
2022/10/05 11:43:31;;;;;;;5.63;2.92;;;;;;;19.51;67.58;101369.88;4942028;28;20043;-79
2022/10/05 11:46:06;;;;;;;6.40;2.60;;;;;;;19.38;66.71;101351.84;4984967;28;20552;-74
2022/10/05 11:49:16;;;;;;;5.45;2.67;;;;;;;19.53;67.70;101357.47;4993772;28;20459;-77
2022/10/05 11:51:55;;;;;;;6.38;2.60;;;;;;;19.41;67.13;101352.41;4993085;28;20533;-77
2022/10/05 11:54:51;;;;;;;9.52;3.10;;;;;;;19.36;67.55;101349.34;4993062;28;20038;-78
2022/10/05 11:57:41;;;;;;;5.20;2.63;;;;;;;19.41;66.67;101352.41;4993351;28;20089;-77
2022/10/05 12:00:19;;;;;;;7.50;2.60;;;;;;;19.41;67.63;101343.72;4993171;28;20093;-75
2022/10/05 12:03:16;;;;;;;5.22;2.58;;;;;;;19.51;68.13;101335.84;4993284;28;20363;-76
2022/10/05 12:06:10;;;;;;;5.82;2.42;;;;;;;19.49;67.55;101315.84;4993174;28;20109;-76
2022/10/05 12:08:58;;;;;;;7.07;2.33;;;;;;;19.27;67.74;101300.47;4993223;28;20070;-80
2022/10/05 12:11:46;;;;;;;6.13;2.70;;;;;;;19.34;68.14;101319.03;4993548;28;20445;-87
2022/10/05 12:14:48;;;;;;;5.78;2.70;;;;;;;19.27;68.16;101307.47;4993348;28;20030;-88
2022/10/05 12:17:28;;;;;;;4.90;2.20;;;;;;;19.14;68.83;101311.22;4993302;28;20080;-88
2022/10/05 12:20:01;;;;;;;5.75;2.10;;;;;;;19.14;67.90;101313.03;4996810;28;20034;-88
2022/10/05 12:22:36;;;;;;;3.92;1.77;;;;;;;19.17;67.56;101304.88;4996687;28;20037;-90
2022/10/05 12:25:05;;;;;;;5.68;2.30;;;;;;;19.27;68.82;101300.47;4979260;28;20049;-90
2022/10/05 12:27:39;;;;;;;5.03;2.40;;;;;;;19.29;68.51;101305.56;4996622;28;20030;-89
2022/10/05 12:30:17;;;;;;;6.68;2.40;;;;;;;19.45;69.43;101300.53;4996245;28;20104;-87
2022/10/05 12:32:54;;;;;;;6.00;2.50;;;;;;;19.51;68.44;101301.78;4996452;28;20022;-89
2022/10/05 12:35:54;;;;;;;6.03;2.20;;;;;;;19.55;68.57;101303.94;4996604;28;20037;-89